Time;durP1;ratioP1;P1;durP2;ratioP2;P2;SDS_P1;SDS_P2;PMS_P1;PMS_P2;Temp;Humidity;BMP_temperature;BMP_pressure;BME280_temperature;BME280_humidity;BME280_pressure;Samples;Min_cycle;Max_cycle;Signal;HPM_P1;HPM_P2
2021/03/13 00:00:27;;;;;;;1.03;0.50;;;;;;;6.82;100.00;97479.97;4980184;28;20277;-72
2021/03/13 00:02:54;;;;;;;0.70;0.40;;;;;;;6.85;100.00;97472.44;4989198;28;20246;-73
2021/03/13 00:05:24;;;;;;;5.37;0.77;;;;;;;6.85;100.00;97479.59;4986080;28;20221;-71
2021/03/13 00:07:52;;;;;;;2.87;0.57;;;;;;;6.88;100.00;97488.00;4978970;28;20206;-71
2021/03/13 00:10:19;;;;;;;2.40;0.50;;;;;;;7.06;100.00;97493.66;4979137;28;20231;-71
2021/03/13 00:12:46;;;;;;;0.50;0.50;;;;;;;7.19;100.00;97487.63;4985625;28;20200;-72
2021/03/13 00:15:14;;;;;;;0.37;0.37;;;;;;;7.22;100.00;97487.25;4984390;28;20262;-72
2021/03/13 00:17:44;;;;;;;1.57;0.60;;;;;;;7.34;100.00;97483.88;4995992;28;20212;-72
2021/03/13 00:20:13;;;;;;;1.53;0.50;;;;;;;7.25;100.00;97470.97;4990037;28;20241;-71
2021/03/13 00:22:40;;;;;;;0.47;0.43;;;;;;;7.24;100.00;97464.81;4991381;28;20212;-72
2021/03/13 00:25:09;;;;;;;1.37;0.70;;;;;;;7.38;100.00;97463.91;4984394;28;20304;-71
2021/03/13 00:27:45;;;;;;;0.90;0.40;;;;;;;7.25;100.00;97468.31;4984765;28;20247;-72
2021/03/13 00:30:15;;;;;;;1.80;0.50;;;;;;;7.23;100.00;97476.47;4983427;28;20221;-72
2021/03/13 00:32:42;;;;;;;1.73;0.60;;;;;;;7.33;100.00;97470.81;4988908;28;20212;-72
2021/03/13 00:35:12;;;;;;;2.53;0.50;;;;;;;7.37;100.00;97464.91;4986923;28;20214;-72
2021/03/13 00:37:39;;;;;;;0.80;0.50;;;;;;;7.25;100.00;97461.16;4986904;28;20212;-72
2021/03/13 00:40:18;;;;;;;0.67;0.47;;;;;;;7.21;100.00;97454.59;4982402;28;20603;-72
2021/03/13 00:42:45;;;;;;;2.57;0.70;;;;;;;6.98;100.00;97456.66;4983923;28;20284;-72
2021/03/13 00:45:14;;;;;;;0.40;0.33;;;;;;;7.16;100.00;97451.69;4990037;28;20213;-72
2021/03/13 00:47:44;;;;;;;1.17;0.57;;;;;;;7.18;100.00;97439.06;4981122;28;20661;-72
2021/03/13 00:50:12;;;;;;;3.40;0.63;;;;;;;7.30;100.00;97447.31;4986606;28;20226;-72
2021/03/13 00:52:39;;;;;;;1.80;0.43;;;;;;;7.19;100.00;97451.31;4985408;28;20201;-72
2021/03/13 00:55:07;;;;;;;1.83;0.50;;;;;;;7.23;100.00;97420.72;4982261;28;20603;-72
2021/03/13 00:57:40;;;;;;;2.00;0.40;;;;;;;7.56;100.00;97432.34;4984277;28;20216;-71
2021/03/13 01:00:08;;;;;;;1.53;0.40;;;;;;;7.41;100.00;97434.31;4981300;28;20296;-72
2021/03/13 01:02:35;;;;;;;0.30;0.27;;;;;;;7.35;100.00;97444.88;4983832;28;20224;-72
2021/03/13 01:05:02;;;;;;;2.50;0.40;;;;;;;7.40;100.00;97453.06;4982979;28;20299;-72
2021/03/13 01:07:28;;;;;;;1.70;0.40;;;;;;;7.23;100.00;97455.22;4982841;28;20244;-72
2021/03/13 01:09:55;;;;;;;1.00;0.70;;;;;;;7.23;100.00;97441.13;4985309;28;20946;-70
2021/03/13 01:12:22;;;;;;;0.70;0.30;;;;;;;7.25;100.00;97416.03;4980864;28;20213;-70
2021/03/13 01:14:50;;;;;;;2.37;0.40;;;;;;;7.15;100.00;97397.00;4980390;28;20844;-71
2021/03/13 01:17:17;;;;;;;1.30;0.40;;;;;;;7.34;100.00;97388.34;4981964;28;20693;-71
2021/03/13 01:19:44;;;;;;;1.70;0.30;;;;;;;7.37;100.00;97398.53;4985144;28;20244;-71
2021/03/13 01:22:12;;;;;;;0.47;0.30;;;;;;;7.25;100.00;97383.38;4986074;28;20711;-72
2021/03/13 01:24:41;;;;;;;0.27;0.20;;;;;;;7.26;100.00;97385.81;4988566;28;20202;-71
2021/03/13 01:27:08;;;;;;;2.03;0.23;;;;;;;7.22;100.00;97378.47;4985553;28;20214;-72
2021/03/13 01:29:35;;;;;;;0.20;0.20;;;;;;;7.28;100.00;97377.69;4990744;28;20207;-71
2021/03/13 01:32:06;;;;;;;0.40;0.37;;;;;;;7.28;100.00;97373.19;4991602;28;20584;-71
2021/03/13 01:34:33;;;;;;;0.63;0.37;;;;;;;7.08;100.00;97377.56;4990910;28;20213;-71
2021/03/13 01:37:00;;;;;;;0.60;0.50;;;;;;;7.24;100.00;97365.81;4991000;28;20621;-71
2021/03/13 01:39:28;;;;;;;1.13;0.30;;;;;;;7.18;100.00;97363.94;4985799;28;20210;-71
2021/03/13 01:41:55;;;;;;;0.23;0.23;;;;;;;6.97;100.00;97362.19;4987309;28;20232;-71
2021/03/13 01:44:21;;;;;;;0.27;0.27;;;;;;;7.09;100.00;97370.41;4989512;28;20201;-71
2021/03/13 01:46:48;;;;;;;0.47;0.37;;;;;;;6.98;100.00;97355.88;4989349;28;20215;-71
2021/03/13 01:49:19;;;;;;;0.27;0.27;;;;;;;6.93;100.00;97338.88;4992293;28;20213;-71
2021/03/13 01:51:46;;;;;;;0.80;0.40;;;;;;;6.95;100.00;97336.88;4991963;28;20698;-71
2021/03/13 01:54:13;;;;;;;0.63;0.40;;;;;;;6.94;100.00;97335.22;4990841;28;20237;-71
2021/03/13 01:56:40;;;;;;;0.30;0.30;;;;;;;6.88;100.00;97336.81;4984528;28;20681;-71
2021/03/13 01:59:07;;;;;;;0.53;0.30;;;;;;;7.04;100.00;97317.94;4990750;28;20208;-71
2021/03/13 02:01:34;;;;;;;1.67;0.47;;;;;;;6.79;100.00;97318.59;4992892;28;20678;-71
2021/03/13 02:04:01;;;;;;;0.50;0.50;;;;;;;6.87;100.00;97313.16;4992296;28;20209;-71
2021/03/13 02:06:29;;;;;;;1.63;0.70;;;;;;;7.09;100.00;97312.03;4989529;28;20205;-71
2021/03/13 02:09:03;;;;;;;1.70;0.37;;;;;;;7.10;100.00;97305.75;4990880;28;20209;-71
2021/03/13 02:11:37;;;;;;;4.83;0.60;;;;;;;6.91;100.00;97301.94;4991314;28;20226;-71
2021/03/13 02:14:16;;;;;;;0.40;0.40;;;;;;;7.01;100.00;97288.34;4990328;28;20215;-70
2021/03/13 02:16:47;;;;;;;2.27;0.70;;;;;;;6.84;100.00;97292.31;4989243;28;20216;-71
2021/03/13 02:19:37;;;;;;;1.83;0.50;;;;;;;6.81;100.00;97285.56;4993476;28;20727;-71
2021/03/13 02:22:06;;;;;;;0.70;0.53;;;;;;;6.85;100.00;97281.50;4986920;28;20235;-71
2021/03/13 02:24:58;;;;;;;0.87;0.50;;;;;;;6.68;100.00;97282.00;4992473;28;20227;-70
2021/03/13 02:27:28;;;;;;;1.97;0.50;;;;;;;6.84;100.00;97277.22;4982681;28;20208;-70
2021/03/13 02:29:57;;;;;;;0.77;0.40;;;;;;;6.92;100.00;97281.56;4981305;28;20229;-71
2021/03/13 02:32:31;;;;;;;1.10;0.43;;;;;;;6.84;100.00;97282.53;4990402;28;20211;-71
2021/03/13 02:35:00;;;;;;;0.73;0.53;;;;;;;6.81;100.00;97280.25;4989487;28;20670;-71
2021/03/13 02:37:31;;;;;;;2.57;0.50;;;;;;;6.88;100.00;97270.53;4984754;28;20719;-71
2021/03/13 02:40:01;;;;;;;0.63;0.50;;;;;;;6.90;100.00;97278.28;4981398;28;20229;-71
2021/03/13 02:42:28;;;;;;;1.33;0.50;;;;;;;6.93;100.00;97272.59;4984487;28;20553;-71
2021/03/13 02:44:57;;;;;;;2.37;0.70;;;;;;;6.88;100.00;97261.75;4989651;28;20215;-71
2021/03/13 02:47:25;;;;;;;0.67;0.50;;;;;;;6.95;100.00;97263.41;4988212;28;20205;-71
2021/03/13 02:49:52;;;;;;;0.90;0.60;;;;;;;7.09;100.00;97259.00;4986794;28;20717;-70
2021/03/13 02:52:20;;;;;;;2.63;0.90;;;;;;;7.30;100.00;97257.03;4986398;28;20299;-70
2021/03/13 02:54:48;;;;;;;2.10;0.70;;;;;;;7.11;100.00;97249.00;4982968;28;20216;-71
2021/03/13 02:57:16;;;;;;;3.33;0.70;;;;;;;7.19;100.00;97248.81;4985268;28;20220;-70
2021/03/13 02:59:44;;;;;;;3.50;0.93;;;;;;;7.23;100.00;97250.06;4989578;28;20295;-71
2021/03/13 03:02:13;;;;;;;4.63;0.90;;;;;;;7.30;100.00;97246.44;4983955;28;20233;-70
2021/03/13 03:04:41;;;;;;;1.00;0.50;;;;;;;7.21;100.00;97252.13;4988924;28;20205;-71
2021/03/13 03:07:08;;;;;;;4.67;1.07;;;;;;;7.26;100.00;97242.53;4988410;28;20249;-71
2021/03/13 03:09:36;;;;;;;2.70;1.07;;;;;;;7.41;100.00;97239.75;4986722;28;20211;-71
2021/03/13 03:12:05;;;;;;;4.07;0.97;;;;;;;7.42;100.00;97239.53;4984750;28;20203;-71
2021/03/13 03:14:32;;;;;;;4.40;0.90;;;;;;;7.48;100.00;97232.59;4989594;28;20210;-71
2021/03/13 03:17:02;;;;;;;2.03;0.77;;;;;;;7.38;100.00;97234.81;4982639;28;20202;-71
2021/03/13 03:19:31;;;;;;;0.67;0.60;;;;;;;7.66;100.00;97233.66;4987796;28;20208;-71
2021/03/13 03:22:00;;;;;;;4.00;0.80;;;;;;;7.61;100.00;97232.66;4985316;28;20233;-71
2021/03/13 03:24:29;;;;;;;2.23;0.63;;;;;;;7.81;100.00;97228.19;4988615;28;20201;-71
2021/03/13 03:26:58;;;;;;;2.20;0.70;;;;;;;7.79;100.00;97230.22;4980912;28;20202;-71
2021/03/13 03:29:26;;;;;;;2.90;0.70;;;;;;;7.86;100.00;97225.75;4985375;28;20213;-71
2021/03/13 03:31:52;;;;;;;2.37;0.70;;;;;;;8.05;100.00;97228.41;4986224;28;20208;-71
2021/03/13 03:34:19;;;;;;;3.60;0.77;;;;;;;8.07;100.00;97215.72;4987937;28;20602;-71
2021/03/13 03:36:49;;;;;;;3.67;0.70;;;;;;;8.12;100.00;97221.25;4987885;28;20206;-72
2021/03/13 03:39:16;;;;;;;1.57;0.67;;;;;;;8.17;100.00;97213.47;4984515;28;20214;-72
2021/03/13 03:41:45;;;;;;;5.53;1.03;;;;;;;8.07;100.00;97223.69;4989926;28;20234;-71
2021/03/13 03:44:14;;;;;;;1.73;0.73;;;;;;;8.17;100.00;97218.00;4986895;28;20281;-71
2021/03/13 03:46:41;;;;;;;2.20;0.87;;;;;;;8.14;100.00;97216.56;4988465;28;20464;-71
2021/03/13 03:49:09;;;;;;;4.70;1.30;;;;;;;8.06;100.00;97199.97;4989958;28;20216;-71
2021/03/13 03:51:36;;;;;;;3.10;1.37;;;;;;;7.97;100.00;97211.84;4990449;28;20228;-71
2021/03/13 03:54:08;;;;;;;4.83;1.00;;;;;;;8.10;100.00;97211.84;4987077;28;20202;-71
2021/03/13 03:56:35;;;;;;;5.23;0.83;;;;;;;8.05;100.00;97206.31;4988884;28;20214;-71
2021/03/13 03:59:04;;;;;;;4.07;0.70;;;;;;;8.06;100.00;97210.59;4989401;28;20205;-70
2021/03/13 04:01:31;;;;;;;1.33;0.63;;;;;;;8.31;100.00;97201.84;4985705;28;20235;-70
2021/03/13 04:03:59;;;;;;;1.40;0.70;;;;;;;8.28;100.00;97209.41;4990769;28;20209;-70
2021/03/13 04:06:27;;;;;;;2.40;0.70;;;;;;;8.27;100.00;97197.97;4990064;28;20217;-70
2021/03/13 04:08:57;;;;;;;1.80;0.67;;;;;;;7.98;100.00;97195.72;4984072;28;20225;-70
2021/03/13 04:11:25;;;;;;;3.57;1.07;;;;;;;8.18;100.00;97198.34;4988501;28;20601;-70
2021/03/13 04:13:54;;;;;;;3.30;0.90;;;;;;;8.16;100.00;97201.22;4992045;28;20210;-70
2021/03/13 04:16:21;;;;;;;2.97;0.80;;;;;;;8.28;100.00;97196.94;4986732;28;20679;-70
2021/03/13 04:18:48;;;;;;;4.30;0.90;;;;;;;8.07;100.00;97198.97;4987378;28;20204;-70
2021/03/13 04:21:15;;;;;;;0.83;0.60;;;;;;;8.41;100.00;97190.78;4987385;28;20238;-70
2021/03/13 04:23:45;;;;;;;1.87;0.77;;;;;;;8.41;100.00;97194.28;4985689;28;20991;-70
2021/03/13 04:26:11;;;;;;;1.57;0.70;;;;;;;8.60;100.00;97203.22;4980561;28;20211;-70
2021/03/13 04:28:39;;;;;;;3.30;0.70;;;;;;;8.66;100.00;97205.88;4986602;28;20261;-70
2021/03/13 04:31:06;;;;;;;1.43;0.60;;;;;;;8.29;100.00;97193.28;4980461;28;20712;-70
2021/03/13 04:33:34;;;;;;;1.03;0.73;;;;;;;8.45;100.00;97192.84;4988318;28;20203;-70
2021/03/13 04:36:01;;;;;;;1.60;0.47;;;;;;;8.50;100.00;97195.69;4987292;28;20206;-70
2021/03/13 04:38:28;;;;;;;4.87;1.10;;;;;;;8.58;100.00;97182.16;4989870;28;20210;-70
2021/03/13 04:40:56;;;;;;;2.33;0.60;;;;;;;8.64;100.00;97180.53;4986175;28;20680;-70
2021/03/13 04:43:24;;;;;;;7.73;0.90;;;;;;;8.74;100.00;97183.56;4987046;28;20280;-70
2021/03/13 04:45:56;;;;;;;1.37;0.50;;;;;;;8.52;100.00;97182.19;4982692;28;20213;-70
2021/03/13 04:48:23;;;;;;;3.67;0.60;;;;;;;8.52;100.00;97174.22;4987221;28;20206;-70
2021/03/13 04:50:50;;;;;;;3.70;0.67;;;;;;;8.69;100.00;97180.72;4987309;28;20222;-70
2021/03/13 04:53:16;;;;;;;1.67;0.47;;;;;;;8.57;100.00;97172.56;4987049;28;20214;-70
2021/03/13 04:55:43;;;;;;;2.80;0.70;;;;;;;8.51;100.00;97177.88;4982224;28;20207;-70
2021/03/13 04:58:10;;;;;;;4.50;0.70;;;;;;;8.28;100.00;97182.84;4985686;28;20212;-70
2021/03/13 05:00:37;;;;;;;3.30;0.63;;;;;;;8.33;100.00;97175.88;4982371;28;20254;-70
2021/03/13 05:03:05;;;;;;;2.40;0.37;;;;;;;8.62;100.00;97161.31;4987181;28;20290;-70
2021/03/13 05:05:33;;;;;;;4.13;0.40;;;;;;;8.57;100.00;97153.94;4986949;28;20217;-70
2021/03/13 05:08:00;;;;;;;1.37;0.43;;;;;;;8.38;100.00;97154.78;4983266;28;20297;-70
2021/03/13 05:10:27;;;;;;;3.93;0.33;;;;;;;8.63;100.00;97152.31;4983325;28;20235;-70
2021/03/13 05:12:54;;;;;;;0.50;0.30;;;;;;;8.51;100.00;97148.63;4984054;28;20738;-70
2021/03/13 05:15:23;;;;;;;2.00;0.40;;;;;;;8.57;100.00;97139.84;4980788;28;20213;-70
2021/03/13 05:17:49;;;;;;;1.70;0.50;;;;;;;8.51;100.00;97144.16;4983695;28;20242;-70
2021/03/13 05:20:18;;;;;;;1.50;0.50;;;;;;;8.71;100.00;97146.72;4987186;28;20238;-70
2021/03/13 05:22:46;;;;;;;1.83;0.57;;;;;;;8.83;100.00;97143.19;4986723;28;20206;-70
2021/03/13 05:25:14;;;;;;;1.40;0.60;;;;;;;8.73;100.00;97134.06;4985934;28;20209;-70
2021/03/13 05:27:41;;;;;;;4.03;1.07;;;;;;;8.86;100.00;97131.31;4978586;28;20202;-70
2021/03/13 05:30:10;;;;;;;2.30;0.40;;;;;;;9.03;100.00;97132.50;4988706;28;20279;-70
2021/03/13 05:32:37;;;;;;;5.23;0.53;;;;;;;9.21;100.00;97129.94;4990901;28;20202;-70
2021/03/13 05:35:05;;;;;;;0.60;0.50;;;;;;;9.11;100.00;97133.06;4985387;28;20217;-70
2021/03/13 05:37:33;;;;;;;1.67;0.43;;;;;;;9.04;100.00;97134.91;4983367;28;20207;-71
2021/03/13 05:40:00;;;;;;;3.07;0.87;;;;;;;9.14;100.00;97129.94;4985319;28;20226;-70
2021/03/13 05:42:28;;;;;;;0.77;0.40;;;;;;;9.25;100.00;97126.66;4988151;28;20234;-71
2021/03/13 05:44:55;;;;;;;2.20;0.50;;;;;;;9.18;100.00;97125.84;4991119;28;20296;-70
2021/03/13 05:47:22;;;;;;;2.23;0.47;;;;;;;9.41;100.00;97117.31;4988694;28;20222;-70
2021/03/13 05:49:57;;;;;;;3.00;1.10;;;;;;;9.44;100.00;97117.69;4981258;28;20221;-70
2021/03/13 05:52:25;;;;;;;2.17;0.60;;;;;;;9.47;100.00;97117.28;4985009;28;20594;-70
2021/03/13 05:54:53;;;;;;;2.17;0.47;;;;;;;9.53;100.00;97112.91;4985742;28;20207;-70
2021/03/13 05:57:21;;;;;;;1.63;0.40;;;;;;;9.48;100.00;97110.09;4990974;28;20207;-70
2021/03/13 05:59:49;;;;;;;1.17;0.67;;;;;;;9.66;100.00;97099.50;4980014;28;20711;-70
2021/03/13 06:02:16;;;;;;;2.30;0.30;;;;;;;9.44;100.00;97112.38;4981027;28;20322;-70
2021/03/13 06:04:43;;;;;;;1.73;0.50;;;;;;;9.57;100.00;97098.13;4985844;28;20291;-70
2021/03/13 06:07:13;;;;;;;2.83;0.93;;;;;;;9.64;100.00;97091.72;4989212;28;20219;-72
2021/03/13 06:09:39;;;;;;;0.87;0.30;;;;;;;9.54;100.00;97078.06;4985663;28;20217;-70
2021/03/13 06:12:09;;;;;;;0.33;0.30;;;;;;;9.49;100.00;97088.56;4992509;28;20204;-70
2021/03/13 06:14:36;;;;;;;4.60;0.50;;;;;;;9.43;100.00;97093.97;4985819;28;20207;-69
2021/03/13 06:17:03;;;;;;;1.83;0.70;;;;;;;9.61;100.00;97091.34;4985407;28;20248;-69
2021/03/13 06:19:48;;;;;;;2.47;0.60;;;;;;;9.78;100.00;97084.44;4991072;28;20676;-70
2021/03/13 06:22:33;;;;;;;2.57;1.20;;;;;;;9.66;100.00;97081.69;4984039;28;20220;-73
2021/03/13 06:25:20;;;;;;;2.67;0.60;;;;;;;9.52;100.00;97074.00;4986313;28;20258;-73
2021/03/13 06:27:51;;;;;;;5.47;1.00;;;;;;;9.98;100.00;97072.56;4992580;28;20203;-71
2021/03/13 06:30:19;;;;;;;3.87;0.80;;;;;;;9.84;100.00;97075.59;4994861;28;20290;-72
2021/03/13 06:32:45;;;;;;;1.17;0.63;;;;;;;9.64;100.00;97072.28;4990539;28;20210;-72
2021/03/13 06:35:20;;;;;;;2.97;0.40;;;;;;;9.74;100.00;97067.28;4989229;28;20235;-72
2021/03/13 06:37:47;;;;;;;3.17;0.60;;;;;;;9.96;100.00;97077.31;4993117;28;20214;-71
2021/03/13 06:40:27;;;;;;;0.83;0.57;;;;;;;10.03;100.00;97080.72;4985765;28;20254;-72
2021/03/13 06:42:54;;;;;;;5.23;0.93;;;;;;;10.20;100.00;97073.00;4986702;28;20271;-73
2021/03/13 06:45:22;;;;;;;3.03;0.60;;;;;;;10.29;99.38;97069.00;4987849;28;20211;-73
2021/03/13 06:47:50;;;;;;;0.50;0.40;;;;;;;10.29;98.15;97058.34;4988649;28;20211;-73
2021/03/13 06:50:18;;;;;;;9.43;2.87;;;;;;;10.08;99.88;97064.09;4987445;28;20232;-73
2021/03/13 06:52:47;;;;;;;6.47;1.97;;;;;;;10.26;96.34;97048.13;4988875;28;20204;-71
2021/03/13 06:55:18;;;;;;;4.03;1.73;;;;;;;10.17;95.58;97025.47;4987132;28;20208;-72
2021/03/13 06:57:47;;;;;;;7.17;2.77;;;;;;;10.56;91.81;97033.00;4986061;28;20209;-72
2021/03/13 07:00:28;;;;;;;6.17;1.77;;;7.40;99.90;;;10.55;92.69;97028.72;4988578;28;20282;-73
2021/03/13 07:03:09;;;;;;;7.37;1.40;;;7.50;99.90;;;10.93;88.94;97024.69;4985712;28;20207;-75
2021/03/13 07:05:37;;;;;;;5.97;1.50;;;7.60;99.90;;;10.53;90.61;97023.59;4987529;28;20203;-76
2021/03/13 07:08:27;;;;;;;2.77;0.80;;;7.80;99.90;;;10.93;88.63;97024.69;4989813;28;20227;-80
2021/03/13 07:11:14;;;;;;;1.23;0.60;;;7.90;99.90;;;10.88;88.86;97026.41;4983969;28;20228;-74
2021/03/13 07:13:42;;;;;;;1.20;0.70;;;8.00;99.90;;;11.12;86.63;97017.44;4989671;28;20576;-76
2021/03/13 07:16:29;;;;;;;2.17;1.17;;;8.00;99.90;;;10.78;90.00;97016.28;4994274;28;20203;-74
2021/03/13 07:18:57;;;;;;;4.87;1.60;;;8.00;99.90;;;10.97;83.46;97017.06;4990430;28;20204;-76
2021/03/13 07:21:25;;;;;;;5.83;2.50;;;8.10;99.90;;;11.09;85.13;97016.03;4995492;28;20236;-75
2021/03/13 07:23:58;;;;;;;3.17;0.70;;;8.20;99.90;;;11.18;81.19;97019.19;4991470;28;20239;-76
2021/03/13 07:26:31;;;;;;;4.00;0.87;;;;;;;11.05;78.50;97012.19;4984934;28;20209;-77
2021/03/13 07:29:00;;;;;;;4.13;0.70;;;;;;;11.17;80.95;96999.69;4984836;28;20196;-78
2021/03/13 07:31:30;;;;;;;4.13;0.60;;;;;;;11.43;80.26;96987.78;4991112;28;20235;-77
2021/03/13 07:34:00;;;;;;;0.57;0.30;;;;;;;11.77;77.09;96992.38;4991119;28;20683;-72
2021/03/13 07:36:27;;;;;;;0.53;0.50;;;8.50;99.90;;;11.50;74.94;96991.97;4988197;28;20224;-72
2021/03/13 07:38:59;;;;;;;1.30;0.67;;;8.50;99.90;;;11.25;77.85;96983.34;4982069;28;20226;-73
2021/03/13 07:41:26;;;;;;;1.50;0.60;;;;;;;11.73;76.72;96981.31;4990783;28;20229;-78
2021/03/13 07:43:54;;;;;;;1.90;0.70;;;8.80;99.90;;;11.61;73.59;97002.94;4988738;28;20209;-73
2021/03/13 07:46:23;;;;;;;1.63;0.57;;;8.70;99.90;;;11.36;76.21;96987.88;4990940;28;20528;-72
2021/03/13 07:48:51;;;;;;;2.20;0.50;;;8.70;99.90;;;11.55;74.36;96985.91;4993623;28;20202;-74
2021/03/13 07:51:18;;;;;;;3.30;0.40;;;;;;;11.70;72.65;96986.31;4986841;28;20701;-74
2021/03/13 07:53:45;;;;;;;0.67;0.40;;;8.80;99.90;;;11.67;73.61;96972.59;4985091;28;20207;-75
2021/03/13 07:56:14;;;;;;;0.60;0.50;;;9.00;99.90;;;12.37;68.71;96987.50;4982402;28;20283;-75
2021/03/13 07:58:42;;;;;;;2.57;0.40;;;9.20;99.90;;;12.13;66.07;96987.53;4983774;28;20606;-71
2021/03/13 08:01:12;;;;;;;1.10;0.50;;;9.20;99.90;;;11.62;72.73;96961.78;4989411;28;20232;-71
2021/03/13 08:03:48;;;;;;;0.40;0.40;;;9.10;99.90;;;11.59;70.65;96973.75;4991324;28;20200;-71
2021/03/13 08:06:17;;;;;;;1.30;0.40;;;8.90;99.90;;;11.55;72.15;96961.88;4979505;28;20263;-71
2021/03/13 08:08:46;;;;;;;0.87;0.40;;;8.90;99.90;;;11.72;70.15;96973.53;4993630;28;20215;-70
2021/03/13 08:11:14;;;;;;;2.23;0.70;;;;;;;11.64;68.76;96963.19;4985256;28;20276;-71
2021/03/13 08:13:58;;;;;;;0.40;0.40;;;;;;;11.73;68.38;96948.44;4986276;28;20237;-70
2021/03/13 08:16:37;;;;;;;2.30;0.47;;;;;;;11.89;67.16;96950.38;4986006;28;20249;-73
2021/03/13 08:19:04;;;;;;;0.40;0.40;;;9.00;1.00;;;11.66;66.82;96957.63;4987008;28;20292;-71
2021/03/13 08:21:45;;;;;;;0.30;0.30;;;8.90;1.00;;;11.32;68.81;96941.31;4985871;28;20237;-70
2021/03/13 08:24:13;;;;;;;0.80;0.30;;;8.90;1.00;;;11.40;69.41;96932.94;4982551;28;20693;-70
2021/03/13 08:27:07;;;;;;;2.43;0.70;;;;;;;11.60;66.78;96931.84;4981962;28;20205;-70
2021/03/13 08:29:57;;;;;;;1.33;0.47;;;8.70;1.00;;;11.25;66.84;96929.09;4987429;28;20208;-72
2021/03/13 08:33:03;;;;;;;1.17;0.50;;;;;;;11.57;64.59;96917.84;4987853;28;20209;-71
2021/03/13 08:35:52;;;;;;;0.30;0.30;;;8.70;1.00;;;11.53;68.00;96908.69;4987037;28;20212;-75
2021/03/13 08:38:54;;;;;;;1.33;0.30;;;8.60;1.00;;;11.88;64.22;96912.13;4979845;28;20213;-72
2021/03/13 08:41:49;;;;;;;0.63;0.40;;;8.70;1.00;;;12.11;62.56;96931.88;4984818;28;20232;-71
2021/03/13 08:44:30;;;;;;;3.07;0.50;;;9.10;1.00;;;12.58;59.34;96934.16;4981837;28;20252;-75
2021/03/13 08:46:58;;;;;;;1.60;0.40;;;9.20;1.00;;;12.42;58.29;96916.19;4984746;28;20225;-71
2021/03/13 08:49:43;;;;;;;1.53;0.50;;;;;;;12.87;54.68;96917.00;4984910;28;20219;-72
2021/03/13 08:52:27;;;;;;;1.17;0.40;;;10.00;1.00;;;12.71;54.28;96935.72;4983609;28;20206;-71
2021/03/13 08:54:56;;;;;;;6.17;0.70;;;10.00;1.00;;;12.59;54.96;96925.88;4981313;28;20239;-72
2021/03/13 08:57:44;;;;;;;1.53;0.53;;;9.90;1.00;;;12.53;54.21;96912.66;4989584;28;20206;-71
2021/03/13 09:00:15;;;;;;;3.60;0.67;;;;;;;12.84;53.75;96896.09;4985083;28;20230;-71
2021/03/13 09:02:42;;;;;;;20.23;1.37;;;10.00;1.00;;;12.57;56.12;96878.97;4982704;28;20304;-72
2021/03/13 09:05:10;;;;;;;1.37;0.70;;;;;;;12.79;54.25;96890.63;4988661;28;20208;-72
2021/03/13 09:07:38;;;;;;;1.93;0.60;;;;;;;13.02;52.86;96892.41;4983294;28;20202;-72
2021/03/13 09:10:07;;;;;;;0.63;0.40;;;;;;;12.91;54.60;96879.88;4989479;28;20231;-73
2021/03/13 09:12:37;;;;;;;1.50;0.60;;;;;;;12.99;53.01;96884.84;4991906;28;20260;-72
2021/03/13 09:15:07;;;;;;;0.80;0.40;;;10.10;1.00;;;12.72;54.50;96879.25;4984995;28;20204;-73
2021/03/13 09:17:35;;;;;;;1.67;0.50;;;10.10;1.00;;;12.63;53.09;96867.34;4986782;28;20210;-72
2021/03/13 09:20:05;;;;;;;3.40;0.60;;;10.00;1.00;;;12.87;52.29;96857.31;4987559;28;20241;-73
2021/03/13 09:22:32;;;;;;;2.00;0.83;;;10.00;1.00;;;12.87;54.06;96842.03;4983674;28;20230;-73
2021/03/13 09:25:00;;;;;;;1.73;0.47;;;10.10;99.90;;;12.79;52.19;96878.03;4984218;28;20208;-73
2021/03/13 09:27:30;;;;;;;1.30;0.70;;;10.20;1.00;;;12.98;51.32;96843.88;4987199;28;20214;-73
2021/03/13 09:29:58;;;;;;;1.50;0.47;;;10.20;1.00;;;13.13;50.50;96854.81;4982867;28;20220;-72
2021/03/13 09:32:26;;;;;;;1.07;0.50;;;10.30;1.00;;;13.15;50.79;96843.84;4991062;28;20693;-73
2021/03/13 09:34:55;;;;;;;0.93;0.50;;;10.40;1.00;;;13.70;48.55;96842.78;4979369;28;20201;-73
2021/03/13 09:37:24;;;;;;;1.17;0.50;;;10.60;1.00;;;13.39;50.33;96829.19;4981894;28;20208;-73
2021/03/13 09:39:54;;;;;;;3.00;0.50;;;10.60;1.00;;;13.42;49.57;96829.50;4986982;28;20278;-73
2021/03/13 09:42:22;;;;;;;1.20;0.53;;;10.70;1.00;;;13.49;48.54;96830.16;4987358;28;20596;-73
2021/03/13 09:44:52;;;;;;;0.63;0.47;;;10.70;1.00;;;13.60;47.89;96844.50;4987942;28;20586;-73
2021/03/13 09:47:40;;;;;;;0.80;0.40;;;10.70;1.00;;;14.08;48.27;96837.31;4991733;28;20207;-74
2021/03/13 09:50:17;;;;;;;0.77;0.30;;;10.80;1.00;;;13.77;48.09;96835.34;4987043;28;20313;-73
2021/03/13 09:53:04;;;;;;;1.90;0.63;;;11.20;1.00;;;13.76;48.67;96835.59;4988909;28;20212;-72
2021/03/13 09:55:38;;;;;;;1.47;0.63;;;11.10;1.00;;;14.18;48.56;96829.38;4990546;28;20297;-73
2021/03/13 09:58:26;;;;;;;2.83;0.70;;;11.20;1.00;;;13.97;48.33;96830.22;4986331;28;20213;-72
2021/03/13 10:01:06;;;;;;;;;;;;;;;;;;;;;
2021/03/13 10:03:42;;;;;;;1.13;0.40;;;11.20;1.00;;;13.89;48.98;96811.09;4986547;28;20770;-72
2021/03/13 10:06:13;;;;;;;1.13;0.50;;;;;;;13.62;49.31;96815.59;4990939;28;20203;-72
2021/03/13 10:08:51;;;;;;;2.20;0.53;;;10.90;1.00;;;13.35;50.49;96806.63;4984651;28;20677;-72
2021/03/13 10:11:58;;;;;;;1.33;0.50;;;10.80;1.00;;;13.31;50.52;96806.31;4985386;28;20313;-73
2021/03/13 10:14:40;;;;;;;0.83;0.53;;;;;;;13.06;51.21;96794.44;4991299;28;20213;-72
2021/03/13 10:17:07;;;;;;;2.10;0.50;;;10.40;1.00;;;13.24;50.85;96791.47;4992094;28;20665;-72
2021/03/13 10:19:39;;;;;;;5.27;0.50;;;10.50;1.00;;;13.00;51.21;96782.00;4998599;28;20232;-73
2021/03/13 10:22:19;;;;;;;0.83;0.30;;;10.50;1.00;;;13.22;50.79;96798.97;4990711;28;20219;-73
2021/03/13 10:24:52;;;;;;;1.83;0.50;;;10.40;1.00;;;13.06;51.87;96800.59;4986332;28;20227;-73
2021/03/13 10:27:28;;;;;;;3.13;0.33;;;;;;;13.10;51.55;96774.94;4987814;28;20212;-73
2021/03/13 10:30:00;;;;;;;2.17;0.70;;;;;;;13.08;51.25;96778.94;4988286;28;20237;-73
2021/03/13 10:32:31;;;;;;;3.10;0.50;;;10.50;1.00;;;13.06;51.47;96803.28;4987220;28;20604;-73
2021/03/13 10:35:16;;;;;;;0.50;0.30;;;;;;;13.03;51.54;96757.44;5001077;28;20201;-73
2021/03/13 10:37:44;;;;;;;0.33;0.30;;;;;;;13.42;51.11;96788.53;4986955;28;20236;-73
2021/03/13 10:40:28;;;;;;;1.20;0.40;;;10.50;1.00;;;13.15;50.43;96784.91;4984143;28;20766;-73
2021/03/13 10:43:16;;;;;;;1.63;0.40;;;10.40;1.00;;;13.01;51.29;96773.75;4988141;28;20226;-73
2021/03/13 10:45:44;;;;;;;0.30;0.30;;;10.40;1.00;;;12.88;52.19;96781.28;4986757;28;20209;-73
2021/03/13 10:48:13;;;;;;;1.10;0.40;;;10.40;1.00;;;13.10;51.39;96776.81;4989089;28;20239;-73
2021/03/13 10:50:43;;;;;;;0.60;0.30;;;10.50;1.00;;;13.05;51.14;96748.09;4981306;28;20300;-72
2021/03/13 10:53:30;;;;;;;2.77;0.50;;;10.40;1.00;;;12.93;51.99;96755.41;4991717;28;20213;-73
2021/03/13 10:55:57;;;;;;;1.40;0.60;;;;;;;12.78;52.05;96752.50;4994446;28;20201;-73
2021/03/13 10:58:25;;;;;;;0.63;0.30;;;10.40;1.00;;;13.06;51.69;96767.66;4987329;28;20212;-72
2021/03/13 11:00:51;;;;;;;1.90;0.50;;;10.40;1.00;;;13.10;51.25;96776.81;4986620;28;20234;-73
2021/03/13 11:03:19;;;;;;;1.30;0.33;;;10.50;1.00;;;13.03;50.82;96744.88;4987556;28;20251;-72
2021/03/13 11:05:49;;;;;;;0.50;0.30;;;10.50;1.00;;;13.27;50.40;96753.47;4986008;28;20204;-72
2021/03/13 11:08:15;;;;;;;0.30;0.30;;;10.50;1.00;;;13.18;50.26;96746.94;4986663;28;20231;-74
2021/03/13 11:10:42;;;;;;;2.20;0.60;;;10.50;1.00;;;13.43;49.56;96758.78;4992839;28;20696;-72
2021/03/13 11:13:10;;;;;;;5.57;0.67;;;10.70;1.00;;;13.48;48.81;96742.75;4991292;28;20212;-74
2021/03/13 11:15:36;;;;;;;0.57;0.40;;;10.70;1.00;;;13.28;50.13;96753.22;4984512;28;20574;-73
2021/03/13 11:18:03;;;;;;;1.43;0.40;;;10.70;1.00;;;13.59;47.72;96751.75;4986930;28;20299;-74
2021/03/13 11:20:31;;;;;;;0.47;0.30;;;10.80;1.00;;;13.39;47.63;96773.75;4983321;28;20283;-72
2021/03/13 11:22:57;;;;;;;1.33;0.50;;;10.70;1.00;;;13.28;48.40;96763.13;4990715;28;20237;-73
2021/03/13 11:25:24;;;;;;;1.03;0.50;;;10.70;1.00;;;13.65;47.74;96761.47;5005164;23;20235;-72
2021/03/13 11:27:51;;;;;;;0.90;0.40;;;10.90;99.90;;;13.64;47.45;96758.00;4989119;28;20215;-71
2021/03/13 11:30:19;;;;;;;1.77;0.50;;;10.90;1.00;;;13.54;48.64;96778.47;4982304;28;20210;-71